Time;durP1;ratioP1;P1;durP2;ratioP2;P2;SDS_P1;SDS_P2;PMS_P1;PMS_P2;Temp;Humidity;BMP_temperature;BMP_pressure;BME280_temperature;BME280_humidity;BME280_pressure;Samples;Min_cycle;Max_cycle;Signal;HPM_P1;HPM_P2
2021/08/28 00:00:39;;;;;;;8;5.3;;;;;;;9.1;100;98317.59;;;;
2021/08/28 00:10:38;;;;;;;10;7.7;;;;;;;8.91;100;98318.86;;;;
2021/08/28 00:20:36;;;;;;;11.8;8;;;;;;;8.74;100;98324.88;;;;
2021/08/28 00:30:35;;;;;;;11.4;7;;;;;;;8.54;100;98341.39;;;;
2021/08/28 00:40:34;;;;;;;8;5.5;;;;;;;8.4;100;98338.72;;;;
2021/08/28 00:50:33;;;;;;;8;4.4;;;;;;;8.35;100;98344.2;;;;
2021/08/28 01:00:32;;;;;;;9.8;6.4;;;;;;;8.45;100;98341.31;;;;
2021/08/28 01:10:31;;;;;;;9.7;6.4;;;;;;;8.65;100;98358.1;;;;
2021/08/28 01:20:30;;;;;;;12.8;6.6;;;;;;;8.68;100;98338.72;;;;
2021/08/28 01:30:28;;;;;;;7.7;4.9;;;;;;;8.56;100;98340.02;;;;
2021/08/28 01:40:27;;;;;;;8.4;5.7;;;;;;;8.38;100;98348.98;;;;
2021/08/28 01:50:26;;;;;;;10.3;7.9;;;;;;;8.22;100;98342.29;;;;
2021/08/28 02:20:22;;;;;;;8.9;5.9;;;;;;;7.76;100;98341.52;;;;
2021/08/28 02:30:21;;;;;;;7.8;4.8;;;;;;;7.56;100;98348.83;;;;
2021/08/28 02:40:19;;;;;;;6.9;4.6;;;;;;;7.35;100;98362.84;;;;
2021/08/28 02:50:18;;;;;;;10.8;5.3;;;;;;;7.28;100;98365.09;;;;
2021/08/28 03:00:17;;;;;;;7;3.5;;;;;;;7.21;100;98365.47;;;;
2021/08/28 03:10:15;;;;;;;9.2;6.9;;;;;;;7.08;100;98366.97;;;;
2021/08/28 03:20:14;;;;;;;9.2;6.1;;;;;;;6.92;100;98362.12;;;;
2021/08/28 03:30:12;;;;;;;7.1;4.2;;;;;;;6.79;100;98360.16;;;;
2021/08/28 03:40:11;;;;;;;6.4;4.4;;;;;;;6.72;100;98357.84;;;;
2021/08/28 03:50:09;;;;;;;9.8;4.4;;;;;;;6.65;100;98346.68;;;;
2021/08/28 04:00:08;;;;;;;7;5;;;;;;;6.65;100;98357.39;;;;
2021/08/28 04:10:07;;;;;;;7.7;4.2;;;;;;;6.77;100;98352.4;;;;
2021/08/28 04:20:05;;;;;;;6.5;4.8;;;;;;;6.86;100;98356.05;;;;
2021/08/28 04:30:04;;;;;;;7.8;5.3;;;;;;;6.94;100;98368.77;;;;
2021/08/28 04:40:02;;;;;;;7.4;5.5;;;;;;;7.34;100;98362.05;;;;
2021/08/28 04:50:01;;;;;;;8.4;5.9;;;;;;;7.65;100;98367.72;;;;
2021/08/28 04:59:59;;;;;;;7.3;4.9;;;;;;;7.91;100;98368.09;;;;
2021/08/28 05:09:58;;;;;;;8;5.3;;;;;;;8.23;100;98380.64;;;;
2021/08/28 05:19:57;;;;;;;6.5;5.4;;;;;;;8.62;100;98375.63;;;;
2021/08/28 05:29:56;;;;;;;6.5;5.5;;;;;;;9.07;100;98381.92;;;;
2021/08/28 05:39:54;;;;;;;8.7;5.7;;;;;;;9.64;100;98396.5;;;;
2021/08/28 05:49:53;;;;;;;7.4;5.6;;;;;;;9.95;100;98401.92;;;;
2021/08/28 05:59:52;;;;;;;6.3;3.8;;;;;;;10.37;100;98401.4;;;;
2021/08/28 06:09:51;;;;;;;7;4.1;;;;;;;10.92;100;98398.25;;;;
2021/08/28 06:19:50;;;;;;;4.4;2.7;;;;;;;11.42;100;98399.41;;;;
2021/08/28 06:29:49;;;;;;;4.9;1.9;;;;;;;11.98;100;98403.05;;;;
2021/08/28 06:39:48;;;;;;;2.4;1.3;;;;;;;12.51;100;98400.67;;;;
2021/08/28 06:49:48;;;;;;;2;1.1;;;;;;;12.94;100;98400.48;;;;
2021/08/28 06:59:47;;;;;;;3;1.3;;;;;;;13.53;100;98386.88;;;;
2021/08/28 07:09:46;;;;;;;4.3;2;;;;;;;13.75;100;98400.05;;;;
2021/08/28 07:19:46;;;;;;;4.1;1.1;;;;;;;14.23;100;98398.65;;;;
2021/08/28 07:29:45;;;;;;;2.2;0.8;;;;;;;14.64;100;98405.84;;;;
2021/08/28 07:39:45;;;;;;;3.8;0.9;;;;;;;14.81;100;98409.14;;;;
2021/08/28 07:49:44;;;;;;;2;0.7;;;;;;;15.25;100;98406.6;;;;
2021/08/28 07:59:44;;;;;;;5.5;2.9;;;;;;;15.4;100;98409.41;;;;
2021/08/28 08:09:43;;;;;;;6.4;2.9;;;;;;;15.58;100;98397.15;;;;
2021/08/28 08:19:43;;;;;;;5.4;3.1;;;;;;;15.99;100;98401.42;;;;
2021/08/28 08:29:43;;;;;;;10.4;1.2;;;;;;;16.22;100;98398.91;;;;
2021/08/28 08:39:42;;;;;;;3.6;1.1;;;;;;;16.48;100;98393.78;;;;
2021/08/28 08:49:42;;;;;;;3;1.4;;;;;;;16.56;100;98402.91;;;;
2021/08/28 08:59:45;;;;;;;1.8;0.8;;;;;;;16.68;100;98410.21;;;;
2021/08/28 09:09:42;;;;;;;3.6;1.4;;;;;;;17.04;100;98399.8;;;;
2021/08/28 09:19:44;;;;;;;3.6;1.3;;;;;;;17.27;100;98401.88;;;;
2021/08/28 09:29:45;;;;;;;2.4;1.3;;;;;;;17.28;100;98401.53;;;;
2021/08/28 09:39:47;;;;;;;1.6;0.9;;;;;;;17.78;100;98395.2;;;;
2021/08/28 09:49:47;;;;;;;2.9;1.5;;;;;;;18.29;100;98397.75;;;;
2021/08/28 09:59:42;;;;;;;2.4;0.8;;;;;;;18.4;100;98401.42;;;;
2021/08/28 10:09:42;;;;;;;2.7;1.2;;;;;;;19.12;100;98396.8;;;;
2021/08/28 10:19:42;;;;;;;1.5;0.6;;;;;;;19.72;100;98399.57;;;;
2021/08/28 10:29:42;;;;;;;1.9;1.1;;;;;;;19.96;100;98394.4;;;;
2021/08/28 10:39:43;;;;;;;1.9;0.9;;;;;;;20.48;100;98387.92;;;;
2021/08/28 10:49:46;;;;;;;3;0.9;;;;;;;20.25;100;98397.45;;;;
2021/08/28 10:59:45;;;;;;;3.7;1;;;;;;;20.57;100;98395.84;;;;
2021/08/28 11:10:10;;;;;;;2.4;0.7;;;;;;;21.15;85.80762;98397.88;;;;
2021/08/28 11:19:44;;;;;;;1.8;0.5;;;;;;;20.17;79.5752;98382.11;;;;
2021/08/28 11:29:44;;;;;;;2.7;1.2;;;;;;;20.33;86.12402;98399.13;;;;
2021/08/28 11:39:45;;;;;;;2.4;0.6;;;;;;;20.3;85.24414;98397.94;;;;
2021/08/28 11:49:45;;;;;;;1.2;0.7;;;;;;;21.21;82.5459;98405.35;;;;
2021/08/28 11:59:46;;;;;;;2.1;0.7;;;;;;;21.36;80.42578;98407.02;;;;
2021/08/28 12:09:46;;;;;;;2.8;0.6;;;;;;;21.05;80.21973;98408.36;;;;
2021/08/28 12:19:47;;;;;;;1.4;0.7;;;;;;;21.39;83.36328;98406.25;;;;
2021/08/28 12:29:47;;;;;;;1.5;0.7;;;;;;;21.36;83.70313;98403.48;;;;
2021/08/28 12:39:49;;;;;;;3;0.8;;;;;;;21.92;77.71289;98406.55;;;;
2021/08/28 12:49:48;;;;;;;4;1.6;;;;;;;21.77;84.71484;98391.16;;;;
2021/08/28 12:59:49;;;;;;;1.6;0.4;;;;;;;21.84;77.76855;98371.98;;;;
2021/08/28 13:09:50;;;;;;;1;0.4;;;;;;;22;76.83496;98383.45;;;;
2021/08/28 13:19:50;;;;;;;2.1;1.2;;;;;;;21.88;79.44238;98378.27;;;;
2021/08/28 13:29:51;;;;;;;1.7;0.9;;;;;;;21.81;82.28613;98364.52;;;;
2021/08/28 13:39:51;;;;;;;2.1;1.2;;;;;;;21.47;87.41602;98342.06;;;;
2021/08/28 13:49:52;;;;;;;2.2;0.7;;;;;;;21.38;81.12109;98344.36;;;;
2021/08/28 13:59:52;;;;;;;4.6;1.6;;;;;;;21.48;88.01563;98342.86;;;;
2021/08/28 14:09:58;;;;;;;2.2;0.8;;;;;;;21.91;78.75293;98361.06;;;;
2021/08/28 14:19:57;;;;;;;1.4;0.6;;;;;;;21.81;88.44043;98350.8;;;;
2021/08/28 14:30:01;;;;;;;2.2;1;;;;;;;22.56;84.96777;98360;;;;
2021/08/28 14:39:57;;;;;;;2.6;0.9;;;;;;;22.99;76.3916;98356.07;;;;
2021/08/28 14:49:57;;;;;;;2.1;1;;;;;;;22.31;77.38672;98345.47;;;;
2021/08/28 14:59:57;;;;;;;4.2;1.6;;;;;;;22.11;74.48926;98347.01;;;;
2021/08/28 15:09:57;;;;;;;1.8;0.8;;;;;;;24.41;67.65234;98341.73;;;;
2021/08/28 15:19:57;;;;;;;57.8;38.5;;;;;;;25.98;57.63184;98356.3;;;;
2021/08/28 15:29:58;;;;;;;9.4;1.5;;;;;;;26.12;55.07422;98345.06;;;;
2021/08/28 15:39:59;;;;;;;3.5;1.5;;;;;;;25.92;52.56738;98346.92;;;;
2021/08/28 15:50:00;;;;;;;2.1;1.1;;;;;;;25.57;53.26855;98350.92;;;;
2021/08/28 16:00:01;;;;;;;2.2;0.7;;;;;;;25.99;57.68066;98350.38;;;;
2021/08/28 16:10:02;;;;;;;47.5;36.3;;;;;;;25.09;56.29785;98344.73;;;;
2021/08/28 16:20:03;;;;;;;6.6;2;;;;;;;24.23;78.07715;98332.81;;;;
2021/08/28 16:30:04;;;;;;;3.3;1.1;;;;;;;22.42;82.63965;98329.78;;;;
2021/08/28 16:40:05;;;;;;;4.4;1.8;;;;;;;21.02;94.07129;98317.91;;;;
2021/08/28 16:50:06;;;;;;;9.9;2;;;;;;;20.07;100;98318.7;;;;
2021/08/28 17:00:06;;;;;;;4.6;1.5;;;;;;;19.35;100;98318.27;;;;
2021/08/28 17:10:06;;;;;;;4.9;2.1;;;;;;;18.53;100;98321;;;;
2021/08/28 17:20:07;;;;;;;3.9;2;;;;;;;17.95;100;98332.05;;;;
2021/08/28 17:30:07;;;;;;;11.7;6.3;;;;;;;17.37;100;98346.83;;;;
2021/08/28 17:40:07;;;;;;;11.9;6.7;;;;;;;16.71;100;98339.55;;;;
2021/08/28 17:50:06;;;;;;;10;6.2;;;;;;;16.19;100;98328.13;;;;
2021/08/28 18:00:06;;;;;;;18.2;10.8;;;;;;;15.69;100;98342.35;;;;
2021/08/28 18:10:06;;;;;;;16;12.5;;;;;;;15.33;100;98345.95;;;;
2021/08/28 18:20:05;;;;;;;22.2;14.8;;;;;;;14.87;100;98353.51;;;;
2021/08/28 18:30:05;;;;;;;17.8;12.7;;;;;;;14.92;100;98363.34;;;;
2021/08/28 18:40:05;;;;;;;14.9;12.2;;;;;;;14.66;100;98369.11;;;;
2021/08/28 18:50:04;;;;;;;15.1;8.8;;;;;;;14.56;100;98370.36;;;;
2021/08/28 19:00:04;;;;;;;21.1;12.5;;;;;;;14.59;100;98372.39;;;;
2021/08/28 19:10:03;;;;;;;22.8;20.2;;;;;;;14.59;100;98382.45;;;;
2021/08/28 19:20:03;;;;;;;11.3;8.3;;;;;;;14.5;100;98384.48;;;;
2021/08/28 19:30:02;;;;;;;22.8;20.4;;;;;;;14.59;100;98379.73;;;;
2021/08/28 19:40:02;;;;;;;11.2;9.1;;;;;;;14.69;100;98375.77;;;;
2021/08/28 19:50:02;;;;;;;8.9;6.1;;;;;;;14.7;100;98378.16;;;;
2021/08/28 20:00:01;;;;;;;10;4.3;;;;;;;14.77;100;98374.88;;;;
2021/08/28 20:10:00;;;;;;;8.9;5.6;;;;;;;14.78;100;98379.98;;;;
2021/08/28 20:20:00;;;;;;;8.6;4.8;;;;;;;14.88;100;98365.95;;;;
2021/08/28 20:29:59;;;;;;;11.2;7.8;;;;;;;14.77;100;98388.44;;;;
2021/08/28 20:39:59;;;;;;;12.7;8.1;;;;;;;14.63;100;98372.51;;;;
2021/08/28 20:50:02;;;;;;;10.1;6.8;;;;;;;14.48;100;98370.45;;;;
2021/08/28 20:59:58;;;;;;;9.1;7.1;;;;;;;14.44;100;98364.12;;;;
2021/08/28 21:10:02;;;;;;;9.5;6.4;;;;;;;14.24;100;98363.05;;;;
2021/08/28 21:20:02;;;;;;;9.8;7;;;;;;;14.36;100;98359.61;;;;
2021/08/28 21:29:58;;;;;;;9.6;8.3;;;;;;;14.36;100;98351.48;;;;
2021/08/28 21:39:58;;;;;;;10.4;7.4;;;;;;;14.28;100;98341.48;;;;
2021/08/28 21:49:58;;;;;;;11.2;7.4;;;;;;;14.13;100;98358.42;;;;
2021/08/28 22:00:02;;;;;;;10.2;6.8;;;;;;;13.96;100;98352.05;;;;
2021/08/28 22:09:58;;;;;;;9.1;6.2;;;;;;;13.98;100;98354.44;;;;
2021/08/28 22:19:53;;;;;;;11.5;7.2;;;;;;;14.05;100;98349.26;;;;
2021/08/28 22:29:53;;;;;;;6.6;5;;;;;;;13.9;100;98347.97;;;;
2021/08/28 22:39:52;;;;;;;8.5;6.7;;;;;;;13.89;100;98356.42;;;;
2021/08/28 22:49:51;;;;;;;8.3;5.1;;;;;;;13.96;100;98352.05;;;;
2021/08/28 22:59:51;;;;;;;8.4;5.9;;;;;;;13.98;100;98338.97;;;;
2021/08/28 23:09:51;;;;;;;16.3;13.3;;;;;;;14.04;100;98326.78;;;;
2021/08/28 23:19:51;;;;;;;9.2;7.6;;;;;;;14.08;100;98330.41;;;;
2021/08/28 23:29:49;;;;;;;8.7;5.2;;;;;;;14.09;100;98334.68;;;;
2021/08/28 23:39:48;;;;;;;10.5;5.1;;;;;;;14.02;100;98322.83;;;;
2021/08/28 23:49:48;;;;;;;6.4;4.9;;;;;;;13.83;100;98328.77;;;;
2021/08/28 23:59:47;;;;;;;9.3;6.4;;;;;;;13.95;100;98328.78;;;;
